Puspokladany, Hungary
Current Conditions -  °F | °C
As of 5:45 PM on Thursday 29 Jan 2015 (Local Time) from LHDC Reporting Station
Broken Clouds Broken Clouds  
Wind Chill: 30°   Ceiling: 1600
Heat Index: 34°   Visibility: 4mi
Dew Point: 30°   Wind: 5mph
Humidity: 87%   Direction: 110°ESE
Pressure: 29.56"   Gusts: NA
Location:  47.32°N, 21.12°E
Report Text: LHDC 291545Z 11004KT 6000 BKN016 01/M01 Q1001
Loading
Personal Weather Stations






























Interactive Weather Map New forecast layout! Learn more

10-Day Weather Forecast

Advertisements
Track Severe Weather on mobile